Nearby METAR Reports

 

KMTN - Baltimore/Martin, Maryland, USA
Distance from station: SSE 8mi, 13km
Updated: Wed, 23-Apr-2014 8:50am EDT
Mostly cloudy
Mostly cloudy
 Wind from WNW
Wind: WNW 20 mph , 31 km/h, Gust: 29 mph , 46 km/h
Temperature: 54°F , 12°C
Dew Point: 36°F , 2°C
Humidity: 51%
Barometer: 29.79 inHg , 1008.8 hPa
Clouds: Mostly cloudy
Visibility: 10 miles , 16 km
Cloud details: Mostly cloudy 5500 ft
2014/04/23 12:50 KMTN 231250Z 29017G25KT 10SM BKN055 12/02 A2979
KDMH - Baltimore/Dwntwn, Maryland, USA
Distance from station: SW 12mi, 19km
Updated: Wed, 23-Apr-2014 8:54am EDT

 
Temperature: 52°F , 11°C
Dew Point: 32°F , 0°C
Humidity: 47%
Barometer: 29.79 inHg , 1008.8 hPa
2014/04/23 12:54 KDMH 231254Z AUTO 11/00 A2979 RMK AO1 SLP087 T01060000
 
KBWI - Balto/Wash Intl, Maryland, USA
Distance from station: SSW 20mi, 33km
Updated: Wed, 23-Apr-2014 8:54am EDT
Mostly cloudy
Mostly cloudy
 Wind from WNW
Wind: WNW 22 mph , 35 km/h, Gust: 36 mph , 57 km/h
Temperature: 50°F , 10°C
Wind Chill: 43°F , 6°C
Dew Point: 30°F , -1°C
Humidity: 47%
Barometer: 29.78 inHg , 1008.5 hPa
Clouds: Mostly cloudy
Visibility: 10 miles , 16 km
Cloud details: Mostly cloudy 4400 ft
2014/04/23 12:54 KBWI 231254Z 30019G31KT 10SM BKN044 10/M01 A2978 RMK AO2 PK WND 29031/1252 SLP084 T01001006
KDMW - Carroll Cnty, Maryland, USA
Distance from station: WNW 30mi, 48km
Updated: Wed, 23-Apr-2014 8:50am EDT
Overcast
Overcast
 Wind from WNW
Wind: WNW 21 mph , 33 km/h, Gust: 29 mph , 46 km/h
Temperature: 46°F , 8°C
Wind Chill: 38°F , 3°C
Dew Point: 32°F , 0°C
Humidity: 57%
Barometer: 29.78 inHg , 1008.5 hPa
Clouds: Overcast
Visibility: 10 miles , 16 km
Cloud details: Overcast 3900 ft
2014/04/23 12:50 KDMW 231250Z AUTO 30018G25KT 10SM OVC039 08/00 A2978 RMK AO2
 
KNAK - Annapolis/Naval, Maryland, USA
Distance from station: S 30mi, 48km
Updated: Wed, 23-Apr-2014 8:54am EDT
Few Clouds
Few Clouds
 Wind from NW
Wind: NW 15 mph , 24 km/h, Gust: 31 mph , 50 km/h
Temperature: 52°F , 11°C
Dew Point: 34°F , 1°C
Humidity: 50%
Barometer: 29.78 inHg , 1008.5 hPa
Clouds: Few Clouds
Visibility: 10 miles , 16 km
Cloud details: Few Clouds 4900 ft
2014/04/23 12:54 KNAK 231254Z AUTO 31013G27KT 10SM FEW049 11/01 A2978 RMK AO2 PK WND 30027/1224 SLP085 T01060011
KW29 - Stevensville, Maryland, USA
Distance from station: SSE 31mi, 50km
Updated: Wed, 23-Apr-2014 9:13am EDT
Partly cloudy
Partly cloudy
 Wind from NW
Wind: NW 20 mph , 31 km/h, Gust: 33 mph , 54 km/h
Temperature: 52°F , 11°C
Dew Point: 32°F , 0°C
Humidity: 47%
Barometer: 29.78 inHg , 1008.5 hPa
Clouds: Partly cloudy
Visibility: 10 miles , 16 km
Cloud details: Partly cloudy 4400 ft
2014/04/23 13:13 KW29 231313Z AUTO 31017G29KT 10SM SCT044 11/00 A2978 RMK AO1
 
KCGS - College Park, Maryland, USA
Distance from station: SW 38mi, 61km
Updated: Wed, 23-Apr-2014 8:50am EDT
Partly cloudy
Partly cloudy
 Wind from NW
Wind: NW 14 mph , 22 km/h, Gust: 28 mph , 44 km/h
Temperature: 52°F , 11°C
Dew Point: 32°F , 0°C
Humidity: 47%
Barometer: 29.80 inHg , 1009.1 hPa
Clouds: Partly cloudy
Visibility: 10 miles , 16 km
Cloud details: Partly cloudy 4600 ft
2014/04/23 12:50 KCGS 231250Z AUTO 31012G24KT 10SM SCT046 11/00 A2980 RMK AO1
KGAI - Gaithersburg, Maryland, USA
Distance from station: WSW 40mi, 65km
Updated: Wed, 23-Apr-2014 8:55am EDT
Overcast
Overcast
 Wind from WNW
Wind: WNW 14 mph , 22 km/h, Gust: 21 mph , 33 km/h
Temperature: 46°F , 8°C
Wind Chill: 40°F , 4°C
Dew Point: 30°F , -1°C
Humidity: 53%
Barometer: 29.83 inHg , 1010.2 hPa
Clouds: Overcast
Visibility: 10 miles , 16 km
Cloud details: Mostly cloudy 4000 ft
Overcast 4700 ft
2014/04/23 12:55 KGAI 231255Z AUTO 30012G18KT 280V350 10SM BKN040 OVC047 08/M01 A2983 RMK AO1
 
KTHV - York, Pennsylvania, USA
Distance from station: NNW 40mi, 65km
Updated: Wed, 23-Apr-2014 8:53am EDT
Overcast
Overcast
 Wind from WNW
Wind: WNW 18 mph , 30 km/h, Gust: 29 mph , 46 km/h
Temperature: 46°F , 8°C
Wind Chill: 39°F , 4°C
Dew Point: 34°F , 1°C
Humidity: 62%
Barometer: 29.78 inHg , 1008.5 hPa
Clouds: Overcast
Visibility: 10 miles , 16 km
Cloud details: Overcast 4000 ft
2014/04/23 12:53 KTHV 231253Z AUTO 30016G25KT 10SM OVC040 08/01 A2978 RMK AO2 PK WND 28027/1242 SLP086 T00830011
KFDK - Frederick, Maryland, USA
Distance from station: W 47mi, 75km
Updated: Wed, 23-Apr-2014 8:55am EDT

 
Visibility: 48 miles
2014/04/23 12:55 KFDK 231255Z 30015G25 10SM BKN039 09/03 A2985
 
KESN - Easton/Newnam, Maryland, USA
Distance from station: SSE 48mi, 78km
Updated: Wed, 23-Apr-2014 8:50am EDT
Partly cloudy
Partly cloudy
 Wind from NNW
Wind: NNW 21 mph , 33 km/h, Gust: 33 mph , 54 km/h
Temperature: 54°F , 12°C
Dew Point: 37°F , 3°C
Humidity: 54%
Barometer: 29.79 inHg , 1008.8 hPa
Clouds: Partly cloudy
Visibility: 10 miles , 16 km
Cloud details: Partly cloudy 4000 ft
2014/04/23 12:50 KESN 231250Z 33018G29KT 10SM SCT040 12/03 A2979
KDCA - Washington/Natl, Washington D.c., USA
Distance from station: SW 49mi, 79km
Updated: Wed, 23-Apr-2014 8:52am EDT
Partly cloudy
Partly cloudy
 Wind from NW
Wind: NW 22 mph , 35 km/h, Gust: 29 mph , 46 km/h
Temperature: 54°F , 12°C
Dew Point: 34°F , 1°C
Humidity: 47%
Barometer: 29.81 inHg , 1009.5 hPa
Clouds: Partly cloudy
Visibility: 10 miles , 16 km
Cloud details: Partly cloudy 6500 ft
2014/04/23 12:52 KDCA 231252Z 32019G25KT 10SM SCT065 12/01 A2981 RMK AO2 SLP094 T01170006
 
KLNS - Lancaster, Pennsylvania, USA
Distance from station: N 49mi, 79km
Updated: Wed, 23-Apr-2014 8:53am EDT
Clear
Clear
 Wind from WNW
Wind: WNW 21 mph , 33 km/h, Gust: 29 mph , 46 km/h
Temperature: 48°F , 9°C
Wind Chill: 41°F , 5°C
Dew Point: 34°F , 1°C
Humidity: 58%
Barometer: 29.73 inHg , 1006.8 hPa
Clouds: Clear
Visibility: 10 miles , 16 km
2014/04/23 12:53 KLNS 231253Z 30018G25KT 10SM CLR 09/01 A2973 RMK AO2 PK WND 30029/1235 SLP069 T00890006
KILG - Wilmington, Delaware, USA
Distance from station: ENE 50mi, 81km
Updated: Wed, 23-Apr-2014 8:51am EDT
Clear
Clear
 Wind from NW
Wind: NW 23 mph , 37 km/h, Gust: 40 mph , 65 km/h
Temperature: 52°F , 11°C
Dew Point: 32°F , 0°C
Humidity: 47%
Barometer: 29.73 inHg , 1006.8 hPa
Clouds: Clear
Visibility: 10 miles , 16 km
2014/04/23 12:51 KILG 231251Z 32020G35KT 10SM CLR 11/00 A2973 RMK AO2 PK WND 31035/1245 SLP065 T01060000